sensor_id;sensor_type;location;lat;lon;timestamp;pressure;altitude;pressure_sealevel;temperature;humidity
49063;BME280;34876;51.464;-0.150;2023-05-11T00:03:34;101392.09;;;19.84;49.16
49063;BME280;34876;51.464;-0.150;2023-05-11T00:06:03;101390.16;;;19.83;49.19
49063;BME280;34876;51.464;-0.150;2023-05-11T00:08:32;101389.06;;;19.82;49.12
49063;BME280;34876;51.464;-0.150;2023-05-11T00:11:01;101388.09;;;19.83;49.10
49063;BME280;34876;51.464;-0.150;2023-05-11T00:13:30;101386.50;;;19.83;49.03
49063;BME280;34876;51.464;-0.150;2023-05-11T00:15:59;101385.89;;;19.83;49.03
49063;BME280;34876;51.464;-0.150;2023-05-11T00:18:27;101384.34;;;19.81;49.04
49063;BME280;34876;51.464;-0.150;2023-05-11T00:20:57;101382.69;;;19.81;49.02
49063;BME280;34876;51.464;-0.150;2023-05-11T00:23:26;101380.96;;;19.79;49.03
49063;BME280;34876;51.464;-0.150;2023-05-11T00:25:55;101381.78;;;19.80;49.00
49063;BME280;34876;51.464;-0.150;2023-05-11T00:28:24;101384.57;;;19.80;48.95
49063;BME280;34876;51.464;-0.150;2023-05-11T00:30:55;101386.20;;;19.79;48.96
49063;BME280;34876;51.464;-0.150;2023-05-11T00:33:24;101386.57;;;19.79;48.92
49063;BME280;34876;51.464;-0.150;2023-05-11T00:35:53;101388.86;;;19.79;48.91
49063;BME280;34876;51.464;-0.150;2023-05-11T00:38:22;101385.35;;;19.78;48.90
49063;BME280;34876;51.464;-0.150;2023-05-11T00:40:51;101385.52;;;19.78;48.88
49063;BME280;34876;51.464;-0.150;2023-05-11T00:43:20;101383.83;;;19.75;48.86
49063;BME280;34876;51.464;-0.150;2023-05-11T00:45:50;101381.99;;;19.77;48.89
49063;BME280;34876;51.464;-0.150;2023-05-11T00:48:19;101383.51;;;19.77;48.84
49063;BME280;34876;51.464;-0.150;2023-05-11T00:50:49;101383.07;;;19.77;48.80
49063;BME280;34876;51.464;-0.150;2023-05-11T00:53:18;101385.95;;;19.76;48.82
49063;BME280;34876;51.464;-0.150;2023-05-11T00:55:47;101389.70;;;19.76;48.79
49063;BME280;34876;51.464;-0.150;2023-05-11T00:58:16;101389.84;;;19.77;48.73
49063;BME280;34876;51.464;-0.150;2023-05-11T01:00:46;101392.79;;;19.75;48.76
49063;BME280;34876;51.464;-0.150;2023-05-11T01:03:15;101394.11;;;19.74;48.78
49063;BME280;34876;51.464;-0.150;2023-05-11T01:05:48;101393.66;;;19.75;48.70
49063;BME280;34876;51.464;-0.150;2023-05-11T01:08:23;101391.54;;;19.73;48.73
49063;BME280;34876;51.464;-0.150;2023-05-11T01:10:57;101389.64;;;19.73;48.70
49063;BME280;34876;51.464;-0.150;2023-05-11T01:13:32;101388.87;;;19.72;48.72
49063;BME280;34876;51.464;-0.150;2023-05-11T01:16:07;101390.48;;;19.72;48.67
49063;BME280;34876;51.464;-0.150;2023-05-11T01:18:42;101390.84;;;19.73;48.63
49063;BME280;34876;51.464;-0.150;2023-05-11T01:21:16;101392.06;;;19.72;48.63
49063;BME280;34876;51.464;-0.150;2023-05-11T01:24:05;101391.79;;;19.73;48.58
49063;BME280;34876;51.464;-0.150;2023-05-11T01:26:48;101392.09;;;19.71;48.59
49063;BME280;34876;51.464;-0.150;2023-05-11T01:29:43;101395.39;;;19.72;48.56
49063;BME280;34876;51.464;-0.150;2023-05-11T01:32:18;101396.14;;;19.70;48.58
49063;BME280;34876;51.464;-0.150;2023-05-11T01:34:53;101399.61;;;19.70;48.56
49063;BME280;34876;51.464;-0.150;2023-05-11T01:37:25;101401.60;;;19.69;48.56
49063;BME280;34876;51.464;-0.150;2023-05-11T01:39:57;101403.23;;;19.67;48.55
49063;BME280;34876;51.464;-0.150;2023-05-11T01:42:31;101403.27;;;19.67;48.55
49063;BME280;34876;51.464;-0.150;2023-05-11T01:45:02;101406.00;;;19.68;48.48
49063;BME280;34876;51.464;-0.150;2023-05-11T01:47:32;101405.80;;;19.69;48.48
49063;BME280;34876;51.464;-0.150;2023-05-11T01:50:05;101409.78;;;19.68;48.50
49063;BME280;34876;51.464;-0.150;2023-05-11T01:52:36;101412.90;;;19.68;48.42
49063;BME280;34876;51.464;-0.150;2023-05-11T01:55:07;101415.33;;;19.69;48.36
49063;BME280;34876;51.464;-0.150;2023-05-11T01:57:38;101418.13;;;19.68;48.38
49063;BME280;34876;51.464;-0.150;2023-05-11T02:00:08;101416.35;;;19.68;48.36
49063;BME280;34876;51.464;-0.150;2023-05-11T02:02:38;101415.34;;;19.68;48.34
49063;BME280;34876;51.464;-0.150;2023-05-11T02:05:09;101415.06;;;19.68;48.31
49063;BME280;34876;51.464;-0.150;2023-05-11T02:07:42;101416.61;;;19.67;48.29
49063;BME280;34876;51.464;-0.150;2023-05-11T02:10:14;101417.44;;;19.65;48.32
49063;BME280;34876;51.464;-0.150;2023-05-11T02:12:50;101420.75;;;19.66;48.29
49063;BME280;34876;51.464;-0.150;2023-05-11T02:15:21;101421.88;;;19.67;48.24
49063;BME280;34876;51.464;-0.150;2023-05-11T02:17:52;101422.26;;;19.65;48.26
49063;BME280;34876;51.464;-0.150;2023-05-11T02:20:23;101426.06;;;19.65;48.25
49063;BME280;34876;51.464;-0.150;2023-05-11T02:22:53;101424.33;;;19.65;48.24
49063;BME280;34876;51.464;-0.150;2023-05-11T02:25:24;101426.94;;;19.66;48.20
49063;BME280;34876;51.464;-0.150;2023-05-11T02:27:53;101427.29;;;19.64;48.24
49063;BME280;34876;51.464;-0.150;2023-05-11T02:30:24;101430.49;;;19.64;48.25
49063;BME280;34876;51.464;-0.150;2023-05-11T02:32:55;101431.08;;;19.64;48.23
49063;BME280;34876;51.464;-0.150;2023-05-11T02:35:28;101432.81;;;19.64;48.19
49063;BME280;34876;51.464;-0.150;2023-05-11T02:38:00;101429.92;;;19.64;48.15
49063;BME280;34876;51.464;-0.150;2023-05-11T02:40:33;101430.31;;;19.65;48.14
49063;BME280;34876;51.464;-0.150;2023-05-11T02:43:18;101428.52;;;19.66;48.09
49063;BME280;34876;51.464;-0.150;2023-05-11T02:45:51;101431.27;;;19.64;48.15
49063;BME280;34876;51.464;-0.150;2023-05-11T02:48:25;101429.61;;;19.64;48.17
49063;BME280;34876;51.464;-0.150;2023-05-11T02:50:57;101431.81;;;19.64;48.11
49063;BME280;34876;51.464;-0.150;2023-05-11T02:53:28;101433.99;;;19.63;48.11
49063;BME280;34876;51.464;-0.150;2023-05-11T02:56:00;101435.94;;;19.63;48.10
49063;BME280;34876;51.464;-0.150;2023-05-11T02:58:29;101435.78;;;19.64;48.06
49063;BME280;34876;51.464;-0.150;2023-05-11T03:00:59;101435.32;;;19.63;48.06
49063;BME280;34876;51.464;-0.150;2023-05-11T03:03:29;101434.36;;;19.63;48.09
49063;BME280;34876;51.464;-0.150;2023-05-11T03:05:58;101435.00;;;19.63;48.08
49063;BME280;34876;51.464;-0.150;2023-05-11T03:08:28;101439.54;;;19.62;48.05
49063;BME280;34876;51.464;-0.150;2023-05-11T03:10:58;101437.49;;;19.62;48.03
49063;BME280;34876;51.464;-0.150;2023-05-11T03:13:27;101436.81;;;19.63;48.01
49063;BME280;34876;51.464;-0.150;2023-05-11T03:15:58;101438.41;;;19.62;48.01
49063;BME280;34876;51.464;-0.150;2023-05-11T03:18:29;101437.24;;;19.62;48.00
49063;BME280;34876;51.464;-0.150;2023-05-11T03:20:59;101435.50;;;19.62;48.05
49063;BME280;34876;51.464;-0.150;2023-05-11T03:23:29;101434.61;;;19.62;48.00
49063;BME280;34876;51.464;-0.150;2023-05-11T03:26:00;101435.55;;;19.61;48.03
49063;BME280;34876;51.464;-0.150;2023-05-11T03:28:31;101432.36;;;19.61;48.03
49063;BME280;34876;51.464;-0.150;2023-05-11T03:31:02;101429.84;;;19.62;47.98
49063;BME280;34876;51.464;-0.150;2023-05-11T03:33:31;101429.16;;;19.61;47.98
49063;BME280;34876;51.464;-0.150;2023-05-11T03:36:02;101431.91;;;19.60;47.99
49063;BME280;34876;51.464;-0.150;2023-05-11T03:38:34;101432.42;;;19.59;47.97
49063;BME280;34876;51.464;-0.150;2023-05-11T03:41:03;101429.11;;;19.59;47.97
49063;BME280;34876;51.464;-0.150;2023-05-11T03:43:33;101428.38;;;19.59;47.95
49063;BME280;34876;51.464;-0.150;2023-05-11T03:46:05;101430.05;;;19.59;47.97
49063;BME280;34876;51.464;-0.150;2023-05-11T03:48:35;101427.10;;;19.58;47.92
49063;BME280;34876;51.464;-0.150;2023-05-11T03:51:04;101427.26;;;19.58;47.89
49063;BME280;34876;51.464;-0.150;2023-05-11T03:53:34;101426.64;;;19.57;47.92
49063;BME280;34876;51.464;-0.150;2023-05-11T03:56:04;101425.38;;;19.58;47.92
49063;BME280;34876;51.464;-0.150;2023-05-11T03:58:37;101425.55;;;19.57;47.93
49063;BME280;34876;51.464;-0.150;2023-05-11T04:01:07;101430.51;;;19.57;47.86
49063;BME280;34876;51.464;-0.150;2023-05-11T04:03:46;101430.77;;;19.57;47.87
49063;BME280;34876;51.464;-0.150;2023-05-11T04:06:17;101427.96;;;19.57;47.88
49063;BME280;34876;51.464;-0.150;2023-05-11T04:08:47;101430.31;;;19.57;47.89
49063;BME280;34876;51.464;-0.150;2023-05-11T04:11:16;101432.13;;;19.55;47.91
49063;BME280;34876;51.464;-0.150;2023-05-11T04:13:45;101435.02;;;19.57;47.85
49063;BME280;34876;51.464;-0.150;2023-05-11T04:16:15;101434.17;;;19.57;47.86
49063;BME280;34876;51.464;-0.150;2023-05-11T04:18:44;101432.74;;;19.56;47.86
49063;BME280;34876;51.464;-0.150;2023-05-11T04:21:14;101432.96;;;19.56;47.82
49063;BME280;34876;51.464;-0.150;2023-05-11T04:23:43;101434.30;;;19.55;47.87
49063;BME280;34876;51.464;-0.150;2023-05-11T04:26:17;101433.68;;;19.54;47.90
49063;BME280;34876;51.464;-0.150;2023-05-11T04:28:46;101433.35;;;19.54;47.87
49063;BME280;34876;51.464;-0.150;2023-05-11T04:31:15;101433.38;;;19.54;47.87
49063;BME280;34876;51.464;-0.150;2023-05-11T04:33:49;101436.27;;;19.54;47.86
49063;BME280;34876;51.464;-0.150;2023-05-11T04:36:17;101435.19;;;19.55;47.83
49063;BME280;34876;51.464;-0.150;2023-05-11T04:38:48;101437.40;;;19.55;47.84
49063;BME280;34876;51.464;-0.150;2023-05-11T04:41:18;101435.91;;;19.56;47.80
49063;BME280;34876;51.464;-0.150;2023-05-11T04:43:48;101436.04;;;19.54;47.79
49063;BME280;34876;51.464;-0.150;2023-05-11T04:46:17;101435.01;;;19.56;47.78
49063;BME280;34876;51.464;-0.150;2023-05-11T04:48:47;101435.57;;;19.55;47.81
49063;BME280;34876;51.464;-0.150;2023-05-11T04:51:16;101433.54;;;19.56;47.74
49063;BME280;34876;51.464;-0.150;2023-05-11T04:53:45;101433.58;;;19.54;47.83
49063;BME280;34876;51.464;-0.150;2023-05-11T04:56:15;101436.46;;;19.55;47.81
49063;BME280;34876;51.464;-0.150;2023-05-11T04:58:44;101436.93;;;19.55;47.80
49063;BME280;34876;51.464;-0.150;2023-05-11T05:01:13;101439.59;;;19.56;47.74
49063;BME280;34876;51.464;-0.150;2023-05-11T05:03:41;101440.66;;;19.55;47.78
49063;BME280;34876;51.464;-0.150;2023-05-11T05:06:11;101442.23;;;19.56;47.76
49063;BME280;34876;51.464;-0.150;2023-05-11T05:08:41;101443.26;;;19.56;47.76
49063;BME280;34876;51.464;-0.150;2023-05-11T05:11:15;101447.55;;;19.56;47.72
49063;BME280;34876;51.464;-0.150;2023-05-11T05:13:44;101445.93;;;19.56;47.71
49063;BME280;34876;51.464;-0.150;2023-05-11T05:16:13;101450.30;;;19.56;47.73
49063;BME280;34876;51.464;-0.150;2023-05-11T05:18:42;101451.39;;;19.58;47.70
49063;BME280;34876;51.464;-0.150;2023-05-11T05:21:11;101453.14;;;19.61;47.58
49063;BME280;34876;51.464;-0.150;2023-05-11T05:23:44;101454.45;;;19.62;47.56
49063;BME280;34876;51.464;-0.150;2023-05-11T05:26:14;101455.98;;;19.62;47.56
49063;BME280;34876;51.464;-0.150;2023-05-11T05:28:43;101456.20;;;19.62;47.57
49063;BME280;34876;51.464;-0.150;2023-05-11T05:31:13;101459.17;;;19.61;47.57
49063;BME280;34876;51.464;-0.150;2023-05-11T05:33:43;101463.92;;;19.60;47.64
49063;BME280;34876;51.464;-0.150;2023-05-11T05:36:14;101464.91;;;19.59;47.65
49063;BME280;34876;51.464;-0.150;2023-05-11T05:38:43;101471.11;;;19.59;47.64
49063;BME280;34876;51.464;-0.150;2023-05-11T05:41:17;101476.31;;;19.57;47.70
49063;BME280;34876;51.464;-0.150;2023-05-11T05:43:52;101477.88;;;19.59;47.66
49063;BME280;34876;51.464;-0.150;2023-05-11T05:46:22;101477.53;;;19.59;47.65
49063;BME280;34876;51.464;-0.150;2023-05-11T05:48:52;101475.46;;;19.58;47.69
49063;BME280;34876;51.464;-0.150;2023-05-11T05:51:22;101475.09;;;19.56;47.75
49063;BME280;34876;51.464;-0.150;2023-05-11T05:53:51;101477.97;;;19.56;47.76
49063;BME280;34876;51.464;-0.150;2023-05-11T05:56:20;101482.49;;;19.58;47.68
49063;BME280;34876;51.464;-0.150;2023-05-11T05:58:49;101483.51;;;19.59;47.71
49063;BME280;34876;51.464;-0.150;2023-05-11T06:01:18;101483.01;;;19.60;47.64
49063;BME280;34876;51.464;-0.150;2023-05-11T06:03:48;101480.99;;;19.53;47.74
49063;BME280;34876;51.464;-0.150;2023-05-11T06:06:18;101481.72;;;19.57;47.68
49063;BME280;34876;51.464;-0.150;2023-05-11T06:08:48;101486.18;;;19.57;47.71
49063;BME280;34876;51.464;-0.150;2023-05-11T06:11:17;101488.39;;;19.58;47.70
49063;BME280;34876;51.464;-0.150;2023-05-11T06:13:46;101490.85;;;19.59;47.66
49063;BME280;34876;51.464;-0.150;2023-05-11T06:16:16;101492.70;;;19.58;47.69
49063;BME280;34876;51.464;-0.150;2023-05-11T06:18:45;101493.28;;;19.58;47.62
49063;BME280;34876;51.464;-0.150;2023-05-11T06:21:15;101493.19;;;19.63;47.51
49063;BME280;34876;51.464;-0.150;2023-05-11T06:23:44;101488.77;;;19.65;47.46
49063;BME280;34876;51.464;-0.150;2023-05-11T06:26:13;101488.52;;;19.64;47.47
49063;BME280;34876;51.464;-0.150;2023-05-11T06:28:43;101485.53;;;19.79;47.12
49063;BME280;34876;51.464;-0.150;2023-05-11T06:31:12;101486.86;;;19.83;46.97
49063;BME280;34876;51.464;-0.150;2023-05-11T06:33:41;101492.66;;;19.87;46.92
49063;BME280;34876;51.464;-0.150;2023-05-11T06:36:11;101495.15;;;19.95;46.71
49063;BME280;34876;51.464;-0.150;2023-05-11T06:38:46;101497.92;;;19.95;46.68
49063;BME280;34876;51.464;-0.150;2023-05-11T06:41:15;101495.76;;;19.89;46.85
49063;BME280;34876;51.464;-0.150;2023-05-11T06:43:45;101496.48;;;19.90;46.79
49063;BME280;34876;51.464;-0.150;2023-05-11T06:46:14;101495.45;;;19.86;46.85
49063;BME280;34876;51.464;-0.150;2023-05-11T06:48:43;101498.32;;;19.80;47.03
49063;BME280;34876;51.464;-0.150;2023-05-11T06:51:13;101502.01;;;19.78;47.10
49063;BME280;34876;51.464;-0.150;2023-05-11T06:53:41;101503.94;;;19.78;47.10
49063;BME280;34876;51.464;-0.150;2023-05-11T06:56:11;101505.33;;;19.79;47.07
49063;BME280;34876;51.464;-0.150;2023-05-11T06:58:41;101505.12;;;19.78;47.14
49063;BME280;34876;51.464;-0.150;2023-05-11T07:01:16;101508.30;;;19.78;47.11
49063;BME280;34876;51.464;-0.150;2023-05-11T07:03:45;101509.70;;;19.81;47.04
49063;BME280;34876;51.464;-0.150;2023-05-11T07:06:15;101507.16;;;19.81;47.03
49063;BME280;34876;51.464;-0.150;2023-05-11T07:08:44;101508.11;;;19.81;47.05
49063;BME280;34876;51.464;-0.150;2023-05-11T07:11:14;101504.50;;;19.80;47.05
49063;BME280;34876;51.464;-0.150;2023-05-11T07:13:46;101506.51;;;19.82;47.00
49063;BME280;34876;51.464;-0.150;2023-05-11T07:16:17;101507.83;;;19.93;46.74
49063;BME280;34876;51.464;-0.150;2023-05-11T07:18:52;101509.60;;;19.96;46.68
49063;BME280;34876;51.464;-0.150;2023-05-11T07:21:22;101509.48;;;20.01;46.52
49063;BME280;34876;51.464;-0.150;2023-05-11T07:23:52;101510.47;;;20.07;46.39
49063;BME280;34876;51.464;-0.150;2023-05-11T07:26:21;101513.28;;;20.01;46.57
49063;BME280;34876;51.464;-0.150;2023-05-11T07:28:51;101514.48;;;20.04;46.44
49063;BME280;34876;51.464;-0.150;2023-05-11T07:31:20;101514.44;;;20.06;46.41
49063;BME280;34876;51.464;-0.150;2023-05-11T07:33:49;101515.69;;;20.06;46.45
49063;BME280;34876;51.464;-0.150;2023-05-11T07:36:21;101516.07;;;20.09;46.30
49063;BME280;34876;51.464;-0.150;2023-05-11T07:38:50;101518.74;;;20.08;46.37
49063;BME280;34876;51.464;-0.150;2023-05-11T07:41:19;101518.02;;;20.00;46.62
49063;BME280;34876;51.464;-0.150;2023-05-11T07:43:48;101516.29;;;20.08;46.37
49063;BME280;34876;51.464;-0.150;2023-05-11T07:46:17;101514.87;;;20.11;46.31
49063;BME280;34876;51.464;-0.150;2023-05-11T07:48:46;101512.79;;;20.12;46.27
49063;BME280;34876;51.464;-0.150;2023-05-11T07:51:16;101514.65;;;20.05;46.46
49063;BME280;34876;51.464;-0.150;2023-05-11T07:53:45;101515.86;;;20.11;46.31
49063;BME280;34876;51.464;-0.150;2023-05-11T07:56:15;101514.99;;;20.11;46.39
49063;BME280;34876;51.464;-0.150;2023-05-11T07:58:49;101518.80;;;20.19;46.16
49063;BME280;34876;51.464;-0.150;2023-05-11T08:01:18;101518.23;;;20.24;46.01
49063;BME280;34876;51.464;-0.150;2023-05-11T08:03:47;101521.13;;;20.63;45.11
49063;BME280;34876;51.464;-0.150;2023-05-11T08:06:21;101522.11;;;20.34;45.75
49063;BME280;34876;51.464;-0.150;2023-05-11T08:08:50;101524.51;;;20.15;46.38
49063;BME280;34876;51.464;-0.150;2023-05-11T08:11:21;101526.03;;;20.11;46.41
49063;BME280;34876;51.464;-0.150;2023-05-11T08:13:51;101528.14;;;20.07;46.55
49063;BME280;34876;51.464;-0.150;2023-05-11T08:16:22;101530.58;;;20.05;46.59
49063;BME280;34876;51.464;-0.150;2023-05-11T08:18:51;101530.57;;;20.08;46.56
49063;BME280;34876;51.464;-0.150;2023-05-11T08:21:21;101529.19;;;20.11;46.44
49063;BME280;34876;51.464;-0.150;2023-05-11T08:23:50;101531.07;;;20.11;46.45
49063;BME280;34876;51.464;-0.150;2023-05-11T08:26:20;101531.59;;;20.11;46.42
49063;BME280;34876;51.464;-0.150;2023-05-11T08:28:55;101531.62;;;20.12;46.40
49063;BME280;34876;51.464;-0.150;2023-05-11T08:31:25;101529.58;;;20.15;46.31
49063;BME280;34876;51.464;-0.150;2023-05-11T08:33:54;101530.65;;;20.16;46.32
49063;BME280;34876;51.464;-0.150;2023-05-11T08:36:26;101530.23;;;20.13;46.34
49063;BME280;34876;51.464;-0.150;2023-05-11T08:38:55;101531.23;;;20.17;46.24
49063;BME280;34876;51.464;-0.150;2023-05-11T08:41:24;101531.99;;;20.14;46.33
49063;BME280;34876;51.464;-0.150;2023-05-11T08:43:54;101533.55;;;20.15;46.33
49063;BME280;34876;51.464;-0.150;2023-05-11T08:46:29;101533.50;;;20.17;46.31
49063;BME280;34876;51.464;-0.150;2023-05-11T08:48:58;101537.27;;;20.30;45.93
49063;BME280;34876;51.464;-0.150;2023-05-11T08:51:27;101534.83;;;20.28;46.02
49063;BME280;34876;51.464;-0.150;2023-05-11T08:53:58;101536.20;;;20.24;46.07
49063;BME280;34876;51.464;-0.150;2023-05-11T08:56:28;101535.89;;;20.37;45.82
49063;BME280;34876;51.464;-0.150;2023-05-11T08:58:58;101537.18;;;20.45;45.59
49063;BME280;34876;51.464;-0.150;2023-05-11T09:01:29;101541.61;;;20.32;45.96
49063;BME280;34876;51.464;-0.150;2023-05-11T09:04:03;101541.27;;;20.47;45.58
49063;BME280;34876;51.464;-0.150;2023-05-11T09:06:34;101541.41;;;20.40;45.78
49063;BME280;34876;51.464;-0.150;2023-05-11T09:09:06;101538.56;;;20.27;46.13
49063;BME280;34876;51.464;-0.150;2023-05-11T09:11:37;101539.79;;;20.38;45.86
49063;BME280;34876;51.464;-0.150;2023-05-11T09:14:06;101539.86;;;20.68;45.13
49063;BME280;34876;51.464;-0.150;2023-05-11T09:16:35;101539.75;;;20.54;45.42
49063;BME280;34876;51.464;-0.150;2023-05-11T09:19:04;101541.02;;;20.44;45.66
49063;BME280;34876;51.464;-0.150;2023-05-11T09:21:34;101537.73;;;20.45;45.67
49063;BME280;34876;51.464;-0.150;2023-05-11T09:24:06;101538.90;;;20.37;45.93
49063;BME280;34876;51.464;-0.150;2023-05-11T09:26:39;101537.11;;;20.50;45.55
49063;BME280;34876;51.464;-0.150;2023-05-11T09:29:08;101534.07;;;20.64;45.25
49063;BME280;34876;51.464;-0.150;2023-05-11T09:31:45;101534.75;;;20.68;45.14
49063;BME280;34876;51.464;-0.150;2023-05-11T09:34:16;101536.21;;;21.20;43.90
49063;BME280;34876;51.464;-0.150;2023-05-11T09:36:51;101531.11;;;21.22;43.81
49063;BME280;34876;51.464;-0.150;2023-05-11T09:39:28;101526.65;;;21.77;42.64
49063;BME280;34876;51.464;-0.150;2023-05-11T09:42:16;101523.72;;;22.31;40.74
49063;BME280;34876;51.464;-0.150;2023-05-11T09:44:48;101523.04;;;21.71;42.51
49063;BME280;34876;51.464;-0.150;2023-05-11T09:47:19;101522.42;;;21.56;42.91
49063;BME280;34876;51.464;-0.150;2023-05-11T09:49:49;101524.47;;;21.60;42.83
49063;BME280;34876;51.464;-0.150;2023-05-11T09:52:18;101523.04;;;21.87;42.18
49063;BME280;34876;51.464;-0.150;2023-05-11T09:54:51;101523.55;;;21.60;42.86
49063;BME280;34876;51.464;-0.150;2023-05-11T09:57:24;101523.44;;;21.47;43.16
49063;BME280;34876;51.464;-0.150;2023-05-11T10:00:00;101522.78;;;21.62;42.83
49063;BME280;34876;51.464;-0.150;2023-05-11T10:02:30;101522.31;;;21.38;43.25
49063;BME280;34876;51.464;-0.150;2023-05-11T10:05:00;101527.33;;;21.23;43.78
49063;BME280;34876;51.464;-0.150;2023-05-11T10:07:39;101519.01;;;21.34;43.50
49063;BME280;34876;51.464;-0.150;2023-05-11T10:10:10;101518.42;;;21.27;43.74
49063;BME280;34876;51.464;-0.150;2023-05-11T10:12:40;101522.46;;;21.07;44.27
49063;BME280;34876;51.464;-0.150;2023-05-11T10:15:10;101514.57;;;21.42;43.28
49063;BME280;34876;51.464;-0.150;2023-05-11T10:17:40;101513.32;;;21.30;43.53
49063;BME280;34876;51.464;-0.150;2023-05-11T10:20:10;101518.51;;;21.05;44.24
49063;BME280;34876;51.464;-0.150;2023-05-11T10:22:40;101514.86;;;21.04;42.17
49063;BME280;34876;51.464;-0.150;2023-05-11T10:25:11;101509.88;;;21.16;44.11
49063;BME280;34876;51.464;-0.150;2023-05-11T10:27:42;101505.15;;;21.23;43.65
49063;BME280;34876;51.464;-0.150;2023-05-11T10:30:15;101508.03;;;21.13;44.05
49063;BME280;34876;51.464;-0.150;2023-05-11T10:32:44;101504.23;;;20.98;44.37
49063;BME280;34876;51.464;-0.150;2023-05-11T10:35:20;101505.48;;;20.74;43.43
49063;BME280;34876;51.464;-0.150;2023-05-11T10:37:49;101504.32;;;21.08;44.09
49063;BME280;34876;51.464;-0.150;2023-05-11T10:40:18;101504.93;;;20.95;44.58
49063;BME280;34876;51.464;-0.150;2023-05-11T10:43:02;101508.35;;;20.83;45.00
49063;BME280;34876;51.464;-0.150;2023-05-11T10:45:48;101507.27;;;20.66;45.58
49063;BME280;34876;51.464;-0.150;2023-05-11T10:49:04;101506.00;;;20.58;46.06
49063;BME280;34876;51.464;-0.150;2023-05-11T10:51:45;101503.61;;;20.86;45.36
49063;BME280;34876;51.464;-0.150;2023-05-11T10:54:33;101502.52;;;20.82;46.04
49063;BME280;34876;51.464;-0.150;2023-05-11T10:57:12;101503.81;;;20.86;46.11
49063;BME280;34876;51.464;-0.150;2023-05-11T11:00:03;101501.18;;;20.97;45.21
49063;BME280;34876;51.464;-0.150;2023-05-11T11:02:41;101499.56;;;20.87;45.62
49063;BME280;34876;51.464;-0.150;2023-05-11T11:05:11;101500.81;;;20.68;46.06
49063;BME280;34876;51.464;-0.150;2023-05-11T11:07:57;101497.42;;;20.61;41.50
49063;BME280;34876;51.464;-0.150;2023-05-11T11:10:30;101496.27;;;20.74;45.42
49063;BME280;34876;51.464;-0.150;2023-05-11T11:13:04;101500.60;;;20.54;46.39
49063;BME280;34876;51.464;-0.150;2023-05-11T11:16:11;101499.83;;;20.54;46.01
49063;BME280;34876;51.464;-0.150;2023-05-11T11:18:46;101501.74;;;20.50;46.72
49063;BME280;34876;51.464;-0.150;2023-05-11T11:21:38;101506.04;;;20.35;47.00
49063;BME280;34876;51.464;-0.150;2023-05-11T11:24:07;101502.68;;;20.41;47.01
49063;BME280;34876;51.464;-0.150;2023-05-11T11:26:52;101502.55;;;20.36;47.23
49063;BME280;34876;51.464;-0.150;2023-05-11T11:29:21;101497.81;;;20.32;47.52
49063;BME280;34876;51.464;-0.150;2023-05-11T11:31:51;101496.17;;;20.43;46.76
49063;BME280;34876;51.464;-0.150;2023-05-11T11:34:37;101493.36;;;20.38;44.18
49063;BME280;34876;51.464;-0.150;2023-05-11T11:37:06;101497.31;;;20.39;46.78
49063;BME280;34876;51.464;-0.150;2023-05-11T11:39:52;101494.75;;;20.60;46.19
49063;BME280;34876;51.464;-0.150;2023-05-11T11:42:38;101494.69;;;20.63;46.05
49063;BME280;34876;51.464;-0.150;2023-05-11T11:45:49;101494.35;;;20.57;46.12
49063;BME280;34876;51.464;-0.150;2023-05-11T11:48:21;101491.59;;;20.57;46.07
49063;BME280;34876;51.464;-0.150;2023-05-11T11:51:01;101493.75;;;20.57;46.01
49063;BME280;34876;51.464;-0.150;2023-05-11T11:54:03;101494.28;;;20.57;46.01
49063;BME280;34876;51.464;-0.150;2023-05-11T11:56:39;101491.42;;;20.40;46.37
49063;BME280;34876;51.464;-0.150;2023-05-11T11:59:16;101490.33;;;20.57;45.91
49063;BME280;34876;51.464;-0.150;2023-05-11T12:01:50;101485.86;;;20.46;46.15
49063;BME280;34876;51.464;-0.150;2023-05-11T12:04:43;101488.40;;;20.45;46.12
49063;BME280;34876;51.464;-0.150;2023-05-11T12:07:19;101487.82;;;20.56;45.63
49063;BME280;34876;51.464;-0.150;2023-05-11T12:09:48;101485.22;;;20.72;45.41
49063;BME280;34876;51.464;-0.150;2023-05-11T12:12:22;101484.06;;;20.65;45.22
49063;BME280;34876;51.464;-0.150;2023-05-11T12:14:51;101483.17;;;20.49;45.45
49063;BME280;34876;51.464;-0.150;2023-05-11T12:17:26;101486.61;;;20.33;41.29
49063;BME280;34876;51.464;-0.150;2023-05-11T12:20:18;101490.58;;;20.21;46.53
49063;BME280;34876;51.464;-0.150;2023-05-11T12:22:49;101488.93;;;19.62;46.22
49063;BME280;34876;51.464;-0.150;2023-05-11T12:25:19;101493.25;;;19.28;45.08
49063;BME280;34876;51.464;-0.150;2023-05-11T12:27:48;101490.59;;;19.36;47.28
49063;BME280;34876;51.464;-0.150;2023-05-11T12:30:20;101490.99;;;19.23;46.82
49063;BME280;34876;51.464;-0.150;2023-05-11T12:32:50;101489.14;;;19.07;47.66
49063;BME280;34876;51.464;-0.150;2023-05-11T12:35:23;101497.76;;;18.90;48.26
49063;BME280;34876;51.464;-0.150;2023-05-11T12:37:55;101496.98;;;19.64;47.38
49063;BME280;34876;51.464;-0.150;2023-05-11T12:40:25;101502.97;;;19.57;46.61
49063;BME280;34876;51.464;-0.150;2023-05-11T12:42:56;101503.53;;;19.60;45.07
49063;BME280;34876;51.464;-0.150;2023-05-11T12:45:28;101502.58;;;19.30;47.44
49063;BME280;34876;51.464;-0.150;2023-05-11T12:48:03;101503.28;;;18.97;46.80
49063;BME280;34876;51.464;-0.150;2023-05-11T12:50:38;101498.86;;;19.42;45.80
49063;BME280;34876;51.464;-0.150;2023-05-11T12:53:12;101502.81;;;19.59;47.25
49063;BME280;34876;51.464;-0.150;2023-05-11T12:55:43;101505.81;;;19.48;47.58
49063;BME280;34876;51.464;-0.150;2023-05-11T12:58:13;101511.29;;;19.18;48.16
49063;BME280;34876;51.464;-0.150;2023-05-11T13:00:52;101507.45;;;19.74;47.01
49063;BME280;34876;51.464;-0.150;2023-05-11T13:03:22;101504.38;;;19.81;42.90
49063;BME280;34876;51.464;-0.150;2023-05-11T13:06:03;101505.89;;;19.57;46.08
49063;BME280;34876;51.464;-0.150;2023-05-11T13:08:32;101504.07;;;19.50;47.42